Latest Coastal Weather Observations for Neptune Island

IDS60701

Issued at 7:01 am CST Wednesday 1 July 2015 (issued every 10 minutes, with the page automatically refreshed every 10 minutes)

About coastal observations | Map of coastal stations | Coastal observations for SA | Marine services | Other Formats
Station Details ID: 018115 Name: NEPTUNE ISLAND Lat: -35.34 Lon: 136.12 Height: 32.0 m
Data from the previous 72 hours. | See also: Recent months at Neptune Island
Date/Time
CST
Temp

°C
Wind Pressure Rain
since 9am
mm
Weather Cloud Vis
km
Sea
Height
m
Swell
Dir
 
Speed
knots
Gust
knots
hPa Trend Height
m
Period
s
Dir
01/07:00am 12.6 N 17 20 1028.0 - 0.0 - - - - - - -
01/06:30am 12.8 NNW 16 19 1028.0 - 0.0 - - - - - - -
01/06:00am 13.0 NNW 17 20 1027.9 - 0.0 - - - - - - -
01/05:30am 13.2 NNW 16 19 1028.2 - 0.0 - - - - - - -
01/05:00am 13.1 NNW 17 19 1028.1 - 0.0 - - - - - - -
01/04:30am 13.2 NNW 17 20 1028.3 - 0.0 - - - - - - -
01/04:00am 13.2 NNW 17 20 1028.4 - 0.0 - - - - - - -
01/03:30am 13.1 NNW 15 18 1028.3 - 0.0 - - - - - - -
01/03:00am 13.0 NNW 15 18 1028.4 - 0.0 - - - - - - -
01/02:30am 13.1 NNW 14 17 1028.5 - 0.0 - - - - - - -
01/02:00am 13.1 NNW 13 16 1028.5 - 0.0 - - - - - - -
01/01:30am 12.9 N 13 15 1028.3 - 0.0 - - - - - - -
01/01:00am 13.1 NNW 13 16 1028.4 - 0.0 - - - - - - -
01/12:30am 13.2 NNW 13 15 1028.5 - 0.0 - - - - - - -
01/12:00am 13.3 NNW 12 14 1028.7 - 0.0 - - - - - - -
 
Date/Time
CST
Temp

°C
Wind Pressure Rain
since 9am
mm
Weather Cloud Vis
km
Sea
Height
m
Swell
Dir
 
Speed
knots
Gust
knots
hPa Trend Height
m
Period
s
Dir
30/11:30pm 13.6 NNW 13 16 1029.0 - 0.0 - - - - - - -
30/11:00pm 13.4 NNW 11 14 1029.1 - 0.0 - - - - - - -
30/10:30pm 13.4 N 12 14 1029.4 - 0.0 - - - - - - -
30/10:00pm 13.5 NNW 11 13 1029.4 - 0.0 - - - - - - -
30/09:30pm 13.6 NNW 11 14 1029.5 - 0.0 - - - - - - -
30/09:00pm 13.7 N 12 14 1029.3 - 0.0 - - - - - - -
30/08:30pm 13.7 N 8 9 1029.4 - 0.0 - - - - - - -
30/08:00pm 13.6 N 6 8 1029.4 - 0.0 - - - - - - -
30/07:30pm 13.6 NNW 7 8 1029.7 - 0.0 - - - - - - -
30/07:00pm 13.0 N 5 6 1029.5 - 0.0 - - - - - - -
30/06:30pm 13.1 NNW 4 5 1029.4 - 0.0 - - - - - - -
30/06:00pm 13.4 WNW 6 8 1029.4 - 0.0 - - - - - - -
30/05:30pm 13.5 WNW 5 9 1029.2 - 0.0 - - - - - - -
30/05:00pm 13.6 NW 7 9 1029.1 - 0.0 - - - - - - -
30/04:30pm 13.6 NW 8 10 1029.0 - 0.0 - - - - - - -
30/04:00pm 13.5 NW 8 10 1028.8 - 0.0 - - - - - - -
30/03:30pm 13.7 NNW 8 9 1028.4 - 0.0 - - - - - - -
30/03:00pm 14.0 NNW 9 11 1028.3 - 0.0 - - - - - - -
30/02:30pm 13.8 NNW 10 13 1028.4 - 0.0 - - - - - - -
30/02:00pm 14.2 NW 10 13 1028.6 - 0.0 - - - - - - -
30/01:30pm 13.5 NNW 9 13 1028.9 - 0.0 - - - - - - -
30/01:00pm 13.5 NNW 9 12 1029.4 - 0.0 - - - - - - -
30/12:30pm 13.5 NW 9 11 1029.7 - 0.0 - - - - - - -
30/12:00pm 13.8 NNW 8 10 1029.9 - 0.0 - - - - - - -
30/11:30am 13.6 N 10 13 1030.3 - 0.0 - - - - - - -
30/11:00am 13.6 NNW 13 16 1030.3 - 0.0 - - - - - - -
30/10:30am 13.3 NNW 10 13 1030.5 - 0.0 - - - - - - -
30/10:00am 13.6 NNW 8 11 1030.6 - 0.0 - - - - - - -
30/09:30am 13.2 NNW 7 9 1030.5 - 0.0 - - - - - - -
30/09:00am 13.0 NNW 7 10 1030.3 - 0.0 - - - - - - -
30/08:30am 13.0 WNW 7 10 1030.1 - 0.0 - - - - - - -
30/08:00am 12.9 NW 7 9 1029.8 - 0.0 - - - - - - -
30/07:30am 13.0 NNW 7 10 1029.5 - 0.0 - - - - - - -
30/07:00am 12.9 NNW 7 9 1029.3 - 0.0 - - - - - - -
30/06:30am 12.8 NNW 7 9 1029.1 - 0.0 - - - - - - -
30/06:00am 12.7 N 6 10 1028.7 - 0.0 - - - - - - -
30/05:30am 12.6 N 6 8 1028.6 - 0.0 - - - - - - -
30/05:00am 12.6 N 6 8 1028.4 - 0.0 - - - - - - -
30/04:30am 12.6 NNE 7 8 1028.5 - 0.0 - - - - - - -
30/04:00am 12.5 N 7 8 1028.7 - 0.0 - - - - - - -
30/03:30am 12.8 NNE 7 9 1028.7 - 0.0 - - - - - - -
30/03:00am 12.8 NNE 5 8 1028.8 - 0.0 - - - - - - -
30/02:30am 12.9 NE 6 8 1028.9 - 0.0 - - - - - - -
30/02:00am 12.8 ENE 5 8 1028.9 - 0.0 - - - - - - -
30/01:30am 12.6 ENE 4 6 1028.7 - 0.0 - - - - - - -
30/01:00am 12.6 NNE 5 7 1029.0 - 0.0 - - - - - - -
30/12:30am 12.6 NE 5 7 1029.2 - 0.0 - - - - - - -
30/12:00am 12.5 NNE 5 7 1029.6 - 0.0 - - - - - - -
 
Date/Time
CST
Temp

°C
Wind Pressure Rain
since 9am
mm
Weather Cloud Vis
km
Sea
Height
m
Swell
Dir
 
Speed
knots
Gust
knots
hPa Trend Height
m
Period
s
Dir
29/11:30pm 12.3 NE 5 7 1029.6 - 0.0 - - - - - - -
29/11:00pm 12.4 ENE 6 7 1029.9 - 0.0 - - - - - - -
29/10:30pm 12.4 NE 3 5 1030.2 - 0.0 - - - - - - -
29/10:00pm 12.2 ENE 5 6 1030.4 - 0.0 - - - - - - -
29/09:30pm 12.4 ENE 4 6 1030.5 - 0.0 - - - - - - -
29/09:00pm 12.4 ENE 5 7 1030.5 - 0.0 - - - - - - -
29/08:30pm 12.4 NE 6 7 1030.4 - 0.0 - - - - - - -
29/08:00pm 12.2 NE 5 7 1030.4 - 0.0 - - - - - - -
29/07:30pm 12.2 NE 4 6 1030.2 - 0.0 - - - - - - -
29/07:00pm 12.3 ENE 4 6 1030.1 - 0.0 - - - - - - -
29/06:30pm 11.9 NNE 4 6 1030.0 - 0.0 - - - - - - -
29/06:00pm 11.9 NE 3 6 1029.8 - 0.0 - - - - - - -
29/05:30pm 12.2 NE 5 7 1029.5 - 0.0 - - - - - - -
29/05:00pm 12.8 NE 6 9 1029.5 - 0.0 - - - - - - -
29/04:30pm 13.4 NE 7 9 1029.5 - 0.0 - - - - - - -
29/04:00pm 13.8 NE 8 12 1029.5 - 0.0 - - - - - - -
29/03:30pm 14.1 NE 9 13 1029.6 - 0.0 - - - - - - -
29/03:00pm 14.3 NE 9 12 1029.6 - 0.0 - - - - - - -
29/02:30pm 14.4 NE 10 16 1029.9 - 0.0 - - - - - - -
29/02:00pm 14.8 NE 10 14 1030.0 - 0.0 - - - - - - -
29/01:30pm 14.7 NE 11 15 1030.2 - 0.0 - - - - - - -
29/01:00pm 14.8 NE 11 18 1030.8 - 0.0 - - - - - - -
29/12:30pm 14.6 NE 13 18 1031.1 - 0.0 - - - - - - -
29/12:00pm 14.6 NE 13 18 1031.5 - 0.0 - - - - - - -
29/11:30am 14.8 NE 14 19 1031.9 - 0.0 - - - - - - -
29/11:00am 14.5 NE 12 18 1032.1 - 0.0 - - - - - - -
29/10:30am 14.6 NE 12 17 1032.3 - 0.0 - - - - - - -
29/10:00am 14.3 NE 11 16 1032.4 - 0.0 - - - - - - -
29/09:30am 14.1 NE 12 17 1032.2 - 0.0 - - - - - - -
29/09:00am 13.8 NE 13 19 1032.1 - 0.2 - - - - - - -
29/08:30am 13.7 NE 14 20 1032.0 - 0.2 - - - - - - -
29/08:00am 13.5 NE 13 19 1031.9 - 0.2 - - - - - - -
29/07:30am 13.4 NE 13 19 1031.7 - 0.2 - - - - - - -
29/07:00am 13.3 NE 14 19 1031.5 - 0.2 - - - - - - -
29/06:30am 13.4 ENE 14 17 1031.4 - 0.2 - - - - - - -
29/06:00am 13.3 ENE 13 17 1031.3 - 0.2 - - - - - - -
29/05:30am 13.4 NE 13 17 1031.2 - 0.2 - - - - - - -
29/05:00am 13.4 NE 11 14 1031.1 - 0.2 - - - - - - -
29/04:30am 13.6 NE 13 15 1031.2 - 0.2 - - - - - - -
29/04:00am 13.7 ENE 10 13 1031.5 - 0.2 - - - - - - -
29/03:30am 13.6 NE 8 12 1031.7 - 0.2 - - - - - - -
29/03:00am 13.5 NE 7 9 1031.8 - 0.2 - - - - - - -
29/02:30am 13.5 ENE 5 8 1031.9 - 0.2 - - - - - - -
29/02:00am 13.2 E 6 7 1032.1 - 0.2 - - - - - - -
29/01:30am 13.0 ESE 8 10 1032.1 - 0.2 - - - - - - -
29/01:00am 12.8 ESE 8 10 1032.2 - 0.2 - - - - - - -
29/12:30am 12.7 ESE 7 9 1032.5 - 0.2 - - - - - - -
29/12:00am 12.2 ESE 9 11 1032.7 - 0.2 Recent precip. - - - - - -
 
Date/Time
CST
Temp

°C
Wind Pressure Rain
since 9am
mm
Weather Cloud Vis
km
Sea
Height
m
Swell
Dir
 
Speed
knots
Gust
knots
hPa Trend Height
m
Period
s
Dir
28/11:30pm 12.4 E 12 15 1032.9 - 0.2 - - - - - - -
28/11:00pm 13.1 ESE 13 16 1032.9 - 0.0 - - - - - - -
28/10:30pm 13.1 SE 8 10 1033.1 - 0.0 - - - - - - -
28/10:00pm 13.6 S 10 13 1033.3 - 0.0 - - - - - - -
28/09:30pm 13.8 S 7 8 1033.2 - 0.0 - - - - - - -
28/09:00pm 13.7 SSW 8 10 1033.2 - 0.0 - - - - - - -
28/08:30pm 13.8 SW 9 11 1033.2 - 0.0 - - - - - - -
28/08:00pm 14.0 SSW 10 12 1033.1 - 0.0 - - - - - - -
28/07:30pm 13.9 SSW 5 7 1033.1 - 0.0 - - - - - - -
28/07:00pm 13.9 S 6 8 1032.9 - 0.0 - - - - - - -
28/06:30pm 13.9 SW 7 9 1032.8 - 0.0 - - - - - - -
28/06:00pm 13.9 SW 8 10 1032.6 - 0.0 - - - - - - -
28/05:30pm 13.9 SW 9 11 1032.5 - 0.0 - - - - - - -
28/05:00pm 14.0 SW 9 11 1032.4 - 0.0 - - - - - - -
28/04:30pm 14.4 WSW 8 10 1032.6 - 0.0 - - - - - - -
28/04:00pm 14.3 W 7 9 1032.5 - 0.0 - - - - - - -
28/03:30pm 14.5 WSW 8 9 1032.5 - 0.0 - - - - - - -
28/03:00pm 14.5 W 6 8 1032.6 - 0.0 - - - - - - -
28/02:30pm 14.6 WNW 6 8 1032.8 - 0.0 - - - - - - -
28/02:00pm 14.7 NW 5 7 1032.8 - 0.0 - - - - - - -
28/01:30pm 14.5 WSW 4 5 1032.9 - 0.0 - - - - - - -
28/01:00pm 14.8 NNW 5 7 1033.2 - 0.0 - - - - - - -
28/12:30pm 15.2 NNW 6 7 1033.4 - 0.0 - - - - - - -
28/12:00pm 15.3 NNW 5 7 1033.8 - 0.0 - - - - - - -
28/11:30am 15.2 NNW 5 7 1034.2 - 0.0 - - - - - - -
28/11:00am 15.3 NW 5 7 1034.4 - 0.0 - - - - - - -
28/10:30am 15.0 N 5 6 1034.5 - 0.0 - - - - - - -
28/10:00am 14.8 NNW 4 6 1034.6 - 0.0 - - - - - - -
28/09:30am 14.7 NNW 4 5 1034.3 - 0.0 - - - - - - -
28/09:00am 14.4 N 5 6 1034.2 - 0.0 - - - - - - -
28/08:30am 14.2 N 6 7 1034.1 - 0.0 - - - - - - -
28/08:00am 13.9 N 6 7 1033.9 - 0.0 - - - - - - -
28/07:30am 13.9 N 5 6 1033.6 - 0.0 - - - - - - -

Other Formats:

Comma delimited format used in spreadsheet applications
http://www.bom.gov.au/fwo/IDS60701/IDS60701.94804.axf

JavaScript Object Notation format (JSON) in row-major order
http://www.bom.gov.au/fwo/IDS60701/IDS60701.94804.json